Time;durP1;ratioP1;P1;durP2;ratioP2;P2;SDS_P1;SDS_P2;PMS_P1;PMS_P2;Temp;Humidity;BMP_temperature;BMP_pressure;BME280_temperature;BME280_humidity;BME280_pressure;Samples;Min_cycle;Max_cycle;Signal;HPM_P1;HPM_P2
2024/01/19 00:00:14;;;;;;;2.47;2.27;;;;;;;7.19;100.00;-24017.63;5032501;28;20176;-70
2024/01/19 00:02:39;;;;;;;2.67;2.47;;;;;;;7.21;100.00;-24018.34;5032472;28;20178;-72
2024/01/19 00:05:05;;;;;;;3.77;2.83;;;;;;;7.27;100.00;-24020.03;5032165;28;20615;-73
2024/01/19 00:07:31;;;;;;;4.47;4.07;;;;;;;7.38;100.00;-24023.00;5031624;28;20195;-72
2024/01/19 00:09:56;;;;;;;8.03;2.70;;;;;;;7.39;100.00;-24023.44;5032549;28;20547;-70
2024/01/19 00:12:22;;;;;;;2.63;2.43;;;;;;;7.19;100.00;-24017.78;5032633;28;20642;-71
2024/01/19 00:14:47;;;;;;;3.33;3.03;;;;;;;7.15;100.00;-24016.63;5032246;28;20178;-70
2024/01/19 00:17:12;;;;;;;1.87;1.77;;;;;;;7.41;100.00;-24023.88;5032229;28;20171;-69
2024/01/19 00:19:38;;;;;;;2.43;2.33;;;;;;;7.46;100.00;-24025.28;5030247;28;20210;-71
2024/01/19 00:22:04;;;;;;;2.80;2.60;;;;;;;7.46;100.00;-24025.44;5031750;28;20175;-69
2024/01/19 00:24:29;;;;;;;2.43;2.30;;;;;;;7.38;100.00;-24023.00;5031935;28;20247;-73
2024/01/19 00:26:55;;;;;;;2.93;2.53;;;;;;;7.54;100.00;-24027.69;5032456;28;20267;-71
2024/01/19 00:29:21;;;;;;;4.83;3.83;;;;;;;7.60;100.00;-24029.25;5031853;28;20503;-70
2024/01/19 00:31:48;;;;;;;2.50;2.30;;;;;;;7.58;100.00;-24028.69;5040294;28;20187;-71
2024/01/19 00:34:14;;;;;;;1.83;1.73;;;;;;;7.77;100.00;-24034.06;5032419;28;20215;-74
2024/01/19 00:36:40;;;;;;;2.05;1.95;;;;;;;7.86;100.00;-24036.63;5031847;28;20194;-72
2024/01/19 00:39:05;;;;;;;2.80;2.03;;;;;;;7.65;100.00;-24030.66;5032112;28;20254;-71
2024/01/19 00:41:31;;;;;;;1.50;1.40;;;;;;;7.75;100.00;-24033.50;5031909;28;20297;-70
2024/01/19 00:43:57;;;;;;;1.92;1.75;;;;;;;7.80;100.00;-24034.91;5031715;28;20187;-74
2024/01/19 00:46:23;;;;;;;2.10;1.97;;;;;;;8.11;100.00;-24043.41;5031715;28;20661;-71
2024/01/19 00:48:48;;;;;;;1.80;1.70;;;;;;;8.33;100.00;-24049.66;5030152;28;20175;-71
2024/01/19 00:51:14;;;;;;;1.58;1.48;;;;;;;8.35;100.00;-24050.38;5031328;28;20172;-69
2024/01/19 00:53:40;;;;;;;2.37;2.23;;;;;;;8.39;100.00;-24051.34;5031435;28;20171;-72
2024/01/19 00:56:07;;;;;;;1.80;1.67;;;;;;;8.43;100.00;-24052.63;5031937;28;20551;-76
2024/01/19 00:58:32;;;;;;;2.50;1.93;;;;;;;8.39;100.00;-24051.34;5031378;28;20618;-72
2024/01/19 01:00:58;;;;;;;1.67;1.58;;;;;;;8.22;100.00;-24046.69;5031229;28;20182;-70
2024/01/19 01:03:24;;;;;;;1.50;1.40;;;;;;;8.16;100.00;-24044.84;5031614;28;20186;-68
2024/01/19 01:05:57;;;;;;;1.70;1.60;;;;;;;8.18;100.00;-24045.41;5031409;28;20229;-70
2024/01/19 01:08:27;;;;;;;3.57;2.33;;;;;;;7.93;100.00;-24038.59;5031654;28;20175;-73
2024/01/19 01:10:54;;;;;;;2.17;2.03;;;;;;;7.92;100.00;-24038.31;5031320;28;20202;-71
2024/01/19 01:13:20;;;;;;;1.57;1.50;;;;;;;7.74;100.00;-24033.06;5031311;28;20175;-69
2024/01/19 01:15:45;;;;;;;2.47;2.27;;;;;;;7.92;100.00;-24038.31;5031301;28;20245;-71
2024/01/19 01:18:11;;;;;;;2.30;2.13;;;;;;;7.67;100.00;-24031.25;5030892;28;20241;-72
2024/01/19 01:20:37;;;;;;;2.80;2.13;;;;;;;7.65;100.00;-24030.66;5030685;28;20175;-71
2024/01/19 01:23:03;;;;;;;2.27;2.17;;;;;;;7.40;100.00;-24023.72;5031228;28;20168;-68
2024/01/19 01:25:30;;;;;;;2.00;1.90;;;;;;;7.59;100.00;-24028.97;5031189;28;20182;-69
2024/01/19 01:27:56;;;;;;;2.83;2.63;;;;;;;7.37;100.00;-24022.72;5031656;28;20560;-68
2024/01/19 01:30:22;;;;;;;2.27;2.10;;;;;;;7.58;100.00;-24028.53;5031268;28;20182;-67
2024/01/19 01:32:47;;;;;;;3.37;3.07;;;;;;;7.63;100.00;-24030.09;5031098;28;20179;-68
2024/01/19 01:35:13;;;;;;;1.50;1.40;;;;;;;7.36;100.00;-24022.59;5029744;28;20182;-68
2024/01/19 01:37:38;;;;;;;2.43;2.23;;;;;;;7.17;100.00;-24017.06;5034683;28;20215;-67
2024/01/19 01:40:06;;;;;;;2.07;1.97;;;;;;;7.62;100.00;-24029.69;5038238;28;20218;-72
2024/01/19 01:42:31;;;;;;;3.37;2.43;;;;;;;7.45;100.00;-24025.13;5031382;28;20611;-70
2024/01/19 01:44:58;;;;;;;3.07;2.77;;;;;;;7.54;100.00;-24027.56;5030700;28;20233;-71
2024/01/19 01:47:23;;;;;;;2.90;2.70;;;;;;;7.55;100.00;-24027.97;5029563;28;20176;-70
2024/01/19 01:49:49;;;;;;;2.53;2.30;;;;;;;7.61;100.00;-24029.41;5030585;28;20182;-72
2024/01/19 01:52:14;;;;;;;2.73;2.47;;;;;;;7.61;100.00;-24029.53;5031212;28;20265;-71
2024/01/19 01:54:40;;;;;;;1.83;1.73;;;;;;;7.64;100.00;-24030.25;5030918;28;20528;-69
2024/01/19 01:57:06;;;;;;;2.03;1.93;;;;;;;7.60;100.00;-24029.25;5029155;28;20605;-70
2024/01/19 01:59:32;;;;;;;2.33;2.13;;;;;;;7.42;100.00;-24024.16;5030412;28;20215;-67
2024/01/19 02:01:57;;;;;;;2.20;2.10;;;;;;;7.81;100.00;-24035.22;5030454;28;20239;-72
2024/01/19 02:04:24;;;;;;;2.03;1.93;;;;;;;7.85;100.00;-24036.34;5030257;28;20168;-70
2024/01/19 02:06:49;;;;;;;1.63;1.53;;;;;;;7.86;100.00;-24036.63;5030453;28;20683;-69
2024/01/19 02:09:15;;;;;;;2.13;2.03;;;;;;;7.87;100.00;-24036.75;5030201;28;20167;-70
2024/01/19 02:11:41;;;;;;;1.50;1.40;;;;;;;7.52;100.00;-24027.13;5030288;28;20175;-71
2024/01/19 02:14:09;;;;;;;2.13;1.90;;;;;;;7.84;100.00;-24036.06;5032876;28;20176;-70
2024/01/19 02:16:35;;;;;;;2.07;1.97;;;;;;;7.64;100.00;-24030.25;5033992;28;20229;-68
2024/01/19 02:19:00;;;;;;;1.90;1.80;;;;;;;7.58;100.00;-24028.69;5033591;28;20199;-69
2024/01/19 02:21:25;;;;;;;2.07;1.90;;;;;;;7.62;100.00;-24029.81;5034167;28;20555;-70
2024/01/19 02:23:57;;;;;;;1.57;1.47;;;;;;;7.71;100.00;-24032.38;5033872;28;20274;-70
2024/01/19 02:26:23;;;;;;;3.60;2.20;;;;;;;7.83;100.00;-24035.63;5033765;28;20661;-72
2024/01/19 02:28:50;;;;;;;2.17;1.97;;;;;;;7.64;100.00;-24030.38;5033461;28;20168;-68
2024/01/19 02:31:15;;;;;;;1.70;1.60;;;;;;;7.70;100.00;-24032.09;5031648;28;20255;-67
2024/01/19 02:33:41;;;;;;;2.30;2.10;;;;;;;7.57;100.00;-24028.41;5031571;28;20239;-71
2024/01/19 02:36:06;;;;;;;1.60;1.50;;;;;;;7.74;100.00;-24033.06;5031613;28;20654;-70
2024/01/19 02:38:32;;;;;;;2.47;2.27;;;;;;;7.72;100.00;-24032.66;5031529;28;20191;-70
2024/01/19 02:40:57;;;;;;;1.70;1.60;;;;;;;7.20;100.00;-24018.06;5032064;28;20175;-72
2024/01/19 02:43:22;;;;;;;1.67;1.57;;;;;;;7.67;100.00;-24031.25;5031672;28;20179;-71
2024/01/19 02:45:48;;;;;;;2.10;2.00;;;;;;;7.39;100.00;-24023.31;5039586;28;20183;-68
2024/01/19 02:48:13;;;;;;;1.80;1.70;;;;;;;7.59;100.00;-24028.81;5037347;28;20627;-68
2024/01/19 02:50:38;;;;;;;2.60;1.97;;;;;;;7.46;100.00;-24025.28;5033869;28;20241;-73
2024/01/19 02:53:04;;;;;;;2.80;2.40;;;;;;;7.32;100.00;-24021.47;5033848;28;20175;-74
2024/01/19 02:55:29;;;;;;;3.53;2.03;;;;;;;7.49;100.00;-24026.13;5033904;28;20182;-70
2024/01/19 02:57:55;;;;;;;2.57;2.37;;;;;;;7.30;100.00;-24020.75;5033614;28;20654;-69
2024/01/19 03:00:20;;;;;;;1.63;1.53;;;;;;;7.29;100.00;-24020.59;5033759;28;20210;-72
2024/01/19 03:02:45;;;;;;;2.70;2.37;;;;;;;7.24;100.00;-24019.03;5033180;28;20717;-70
2024/01/19 03:05:11;;;;;;;2.93;2.27;;;;;;;7.41;100.00;-24023.88;5033690;28;20699;-72
2024/01/19 03:07:36;;;;;;;2.90;2.70;;;;;;;7.02;100.00;-24012.94;5033483;28;20178;-71
2024/01/19 03:10:02;;;;;;;2.23;2.03;;;;;;;7.35;100.00;-24022.31;5033448;28;20171;-72
2024/01/19 03:12:27;;;;;;;1.97;1.87;;;;;;;7.24;100.00;-24019.03;5033305;28;20297;-70
2024/01/19 03:14:52;;;;;;;1.47;1.37;;;;;;;7.20;100.00;-24017.91;5033119;28;20178;-73
2024/01/19 03:17:19;;;;;;;2.23;2.03;;;;;;;7.10;100.00;-24015.34;5032582;28;20640;-68
2024/01/19 03:19:44;;;;;;;2.33;2.13;;;;;;;7.07;100.00;-24014.38;5033105;28;20211;-70
2024/01/19 03:22:09;;;;;;;2.37;2.17;;;;;;;7.09;100.00;-24015.06;5033280;28;20663;-69
2024/01/19 03:24:35;;;;;;;2.67;2.47;;;;;;;6.87;100.00;-24008.84;5031261;28;20179;-71
2024/01/19 03:27:00;;;;;;;2.30;2.13;;;;;;;6.87;100.00;-24008.69;5032933;28;20183;-71
2024/01/19 03:29:26;;;;;;;2.97;2.67;;;;;;;6.73;100.00;-24004.88;5033086;28;20626;-70
2024/01/19 03:31:53;;;;;;;4.30;3.17;;;;;;;7.03;100.00;-24013.38;5032844;28;20273;-67
2024/01/19 03:34:19;;;;;;;3.23;2.93;;;;;;;6.92;100.00;-24010.13;5033159;28;20593;-71
2024/01/19 03:36:44;;;;;;;2.33;2.13;;;;;;;6.79;100.00;-24006.44;5032902;28;20186;-71
2024/01/19 03:39:10;;;;;;;2.03;1.87;;;;;;;7.04;100.00;-24013.50;5032960;28;20570;-67
2024/01/19 03:41:35;;;;;;;2.30;2.10;;;;;;;6.75;100.00;-24005.28;5032684;28;20210;-69
2024/01/19 03:44:00;;;;;;;5.07;2.30;;;;;;;6.91;100.00;-24009.97;5032761;28;20619;-71
2024/01/19 03:46:26;;;;;;;3.17;2.17;;;;;;;6.99;100.00;-24012.25;5032662;28;20240;-72
2024/01/19 03:48:51;;;;;;;2.53;2.23;;;;;;;6.84;100.00;-24008.00;5032656;28;20179;-68
2024/01/19 03:51:16;;;;;;;1.63;1.53;;;;;;;6.88;100.00;-24009.13;5032613;28;20175;-71
2024/01/19 03:53:45;;;;;;;2.60;2.40;;;;;;;6.69;100.00;-24003.59;5037550;28;20198;-67
2024/01/19 03:56:11;;;;;;;2.07;1.97;;;;;;;6.60;100.00;-24001.19;5037302;28;20183;-71
2024/01/19 03:58:37;;;;;;;2.60;2.40;;;;;;;6.78;100.00;-24006.13;5032492;28;20196;-69
2024/01/19 04:01:04;;;;;;;2.07;1.97;;;;;;;6.84;100.00;-24008.00;5032333;28;20175;-74
2024/01/19 04:03:30;;;;;;;3.60;1.90;;;;;;;6.56;100.00;-24000.19;5032531;28;20187;-71
2024/01/19 04:05:56;;;;;;;1.97;1.87;;;;;;;6.87;100.00;-24008.84;5032826;28;20172;-71
2024/01/19 04:08:21;;;;;;;2.13;2.03;;;;;;;6.89;100.00;-24009.41;5032630;28;20190;-71
2024/01/19 04:10:46;;;;;;;2.63;2.43;;;;;;;6.69;100.00;-24003.72;5032425;28;20156;-68
2024/01/19 04:13:12;;;;;;;2.37;2.17;;;;;;;6.66;100.00;-24002.88;5031999;28;20180;-70
2024/01/19 04:15:37;;;;;;;1.73;1.63;;;;;;;6.99;100.00;-24012.25;5032034;28;20179;-70
2024/01/19 04:18:04;;;;;;;2.53;2.40;;;;;;;6.98;100.00;-24011.94;5032209;28;20282;-70
2024/01/19 04:20:29;;;;;;;2.87;1.73;;;;;;;7.13;100.00;-24016.06;5031153;28;20179;-71
2024/01/19 04:22:55;;;;;;;3.00;2.73;;;;;;;7.05;100.00;-24013.81;5031696;28;20179;-72
2024/01/19 04:25:20;;;;;;;2.60;2.40;;;;;;;7.09;100.00;-24015.06;5039822;28;20277;-69
2024/01/19 04:27:46;;;;;;;2.43;2.23;;;;;;;7.02;100.00;-24013.09;5031923;28;20266;-70
2024/01/19 04:30:11;;;;;;;2.23;2.03;;;;;;;7.11;100.00;-24015.50;5030398;28;20187;-73
2024/01/19 04:32:37;;;;;;;5.03;2.17;;;;;;;7.00;100.00;-24012.38;5031582;28;20268;-69
2024/01/19 04:35:04;;;;;;;2.10;1.90;;;;;;;6.82;100.00;-24007.41;5031409;28;20310;-70
2024/01/19 04:37:30;;;;;;;2.40;2.20;;;;;;;6.64;100.00;-24002.31;5031482;28;20179;-71
2024/01/19 04:39:55;;;;;;;2.80;2.57;;;;;;;6.62;100.00;-24001.88;5031613;28;20277;-66
2024/01/19 04:42:21;;;;;;;4.33;2.57;;;;;;;6.74;100.00;-24005.00;5031624;28;20191;-72
2024/01/19 04:44:46;;;;;;;2.83;2.60;;;;;;;6.41;100.00;-23995.78;5031156;28;20179;-71
2024/01/19 04:47:11;;;;;;;2.77;2.57;;;;;;;6.53;100.00;-23999.19;5031179;28;20240;-72
2024/01/19 04:49:37;;;;;;;3.33;2.77;;;;;;;6.63;100.00;-24002.03;5031511;28;20206;-73
2024/01/19 04:52:02;;;;;;;2.40;2.20;;;;;;;6.54;100.00;-23999.47;5031363;28;20171;-73
2024/01/19 04:54:28;;;;;;;3.50;2.43;;;;;;;6.60;100.00;-24001.31;5031505;28;20229;-70
2024/01/19 04:56:53;;;;;;;3.17;2.60;;;;;;;6.50;100.00;-23998.47;5031212;28;20179;-70
2024/01/19 04:59:18;;;;;;;2.80;2.60;;;;;;;6.41;100.00;-23995.78;5031032;28;20282;-72
2024/01/19 05:01:44;;;;;;;3.17;2.00;;;;;;;6.25;100.00;-23991.38;5034976;28;20186;-67
2024/01/19 05:04:09;;;;;;;3.60;2.43;;;;;;;6.42;100.00;-23996.06;5036979;28;20182;-71
2024/01/19 05:06:35;;;;;;;3.40;2.53;;;;;;;6.21;100.00;-23990.38;5029749;28;20175;-71
2024/01/19 05:09:00;;;;;;;3.93;2.80;;;;;;;6.07;100.00;-23986.41;5031128;28;20179;-71
2024/01/19 05:11:26;;;;;;;3.83;2.70;;;;;;;5.96;100.00;-23983.13;5031198;28;20619;-68
2024/01/19 05:13:51;;;;;;;3.50;3.20;;;;;;;6.24;100.00;-23990.94;5031569;28;20179;-72
2024/01/19 05:16:17;;;;;;;2.63;2.30;;;;;;;5.97;100.00;-23983.41;5029339;28;20167;-69
2024/01/19 05:18:42;;;;;;;2.40;2.30;;;;;;;5.97;100.00;-23983.56;5031012;28;20199;-69
2024/01/19 05:21:07;;;;;;;2.57;2.27;;;;;;;6.28;100.00;-23992.09;5031202;28;20561;-68
2024/01/19 05:23:33;;;;;;;2.60;2.40;;;;;;;6.25;100.00;-23991.38;5030953;28;20167;-72
2024/01/19 05:25:58;;;;;;;2.73;2.53;;;;;;;6.29;100.00;-23992.50;5030579;28;20317;-71
2024/01/19 05:28:24;;;;;;;1.67;1.57;;;;;;;6.26;100.00;-23991.66;5029095;28;20206;-73
2024/01/19 05:30:49;;;;;;;4.73;3.63;;;;;;;6.05;100.00;-23985.84;5029097;28;20670;-69
2024/01/19 05:33:15;;;;;;;2.27;2.17;;;;;;;6.07;100.00;-23986.25;5030138;28;20219;-68
2024/01/19 05:35:40;;;;;;;1.80;1.70;;;;;;;6.14;100.00;-23988.25;5031390;28;20194;-73
2024/01/19 05:38:06;;;;;;;2.60;2.40;;;;;;;6.24;100.00;-23991.09;5031423;28;20199;-72
2024/01/19 05:40:31;;;;;;;2.77;2.57;;;;;;;6.30;100.00;-23992.66;5029216;28;20317;-72
2024/01/19 05:42:57;;;;;;;1.77;1.67;;;;;;;6.32;100.00;-23993.22;5029881;28;20690;-69
2024/01/19 05:45:22;;;;;;;6.50;3.30;;;;;;;6.01;100.00;-23984.69;5028434;28;20601;-72
2024/01/19 05:47:47;;;;;;;1.53;1.47;;;;;;;5.89;100.00;-23981.28;5032218;28;20164;-70
2024/01/19 05:50:13;;;;;;;2.10;2.00;;;;;;;5.83;100.00;-23979.59;5034505;28;20185;-72
2024/01/19 05:52:38;;;;;;;2.80;2.60;;;;;;;5.88;100.00;-23980.88;5034643;28;20528;-68
2024/01/19 05:55:05;;;;;;;2.10;2.00;;;;;;;6.06;100.00;-23986.13;5034357;28;20221;-70
2024/01/19 05:57:30;;;;;;;2.47;2.27;;;;;;;5.76;100.00;-23977.59;5033513;28;20190;-71
2024/01/19 05:59:56;;;;;;;2.43;2.23;;;;;;;5.79;100.00;-23978.44;5033451;28;20207;-68
2024/01/19 06:02:21;;;;;;;2.97;2.70;;;;;;;6.02;100.00;-23984.84;5033790;28;20550;-70
2024/01/19 06:04:47;;;;;;;3.10;2.77;;;;;;;5.89;100.00;-23981.28;5033634;28;20175;-72
2024/01/19 06:07:12;;;;;;;2.47;2.33;;;;;;;5.62;100.00;-23973.75;5033885;28;20181;-73
2024/01/19 06:09:38;;;;;;;3.83;3.53;;;;;;;5.72;100.00;-23976.59;5039400;28;20167;-71
2024/01/19 06:12:05;;;;;;;3.17;2.87;;;;;;;5.69;100.00;-23975.59;5034791;28;20194;-70
2024/01/19 06:14:31;;;;;;;2.70;2.40;;;;;;;5.92;100.00;-23982.00;5014064;28;20280;-72
2024/01/19 06:16:56;;;;;;;2.60;2.40;;;;;;;5.90;100.00;-23981.44;5023447;28;20258;-71
2024/01/19 06:19:21;;;;;;;2.00;1.90;;;;;;;5.91;100.00;-23981.72;5033064;28;20206;-70
2024/01/19 06:21:48;;;;;;;1.43;1.33;;;;;;;5.85;100.00;-23980.00;5033932;28;20545;-72
2024/01/19 06:24:17;;;;;;;4.77;3.37;;;;;;;5.95;100.00;-23982.84;5033532;28;20592;-73
2024/01/19 06:26:46;;;;;;;3.57;2.90;;;;;;;6.16;100.00;-23988.97;5033438;28;20214;-71
2024/01/19 06:29:12;;;;;;;2.77;2.57;;;;;;;6.05;100.00;-23985.84;5033735;28;20320;-72
2024/01/19 06:31:44;;;;;;;2.63;2.43;;;;;;;6.31;100.00;-23993.09;5033375;28;20623;-72
2024/01/19 06:34:11;;;;;;;3.70;3.40;;;;;;;6.42;100.00;-23996.06;5033201;28;20542;-71
2024/01/19 06:36:36;;;;;;;2.87;2.67;;;;;;;6.43;100.00;-23996.34;5032750;28;20706;-73
2024/01/19 06:39:02;;;;;;;3.83;3.13;;;;;;;6.58;100.00;-24000.75;5031866;28;20207;-69
2024/01/19 06:41:27;;;;;;;2.10;1.93;;;;;;;6.86;100.00;-24008.41;5033507;28;20254;-68
2024/01/19 06:43:53;;;;;;;2.97;2.77;;;;;;;6.89;100.00;-24009.41;5032206;28;20179;-71
2024/01/19 06:46:18;;;;;;;2.07;1.97;;;;;;;6.94;100.00;-24010.69;5033442;28;20298;-74
2024/01/19 06:48:43;;;;;;;2.80;2.60;;;;;;;6.80;100.00;-24006.84;5033633;28;20183;-70
2024/01/19 06:51:16;;;;;;;2.40;2.23;;;;;;;7.12;100.00;-24015.78;5032001;28;20597;-72
2024/01/19 06:53:41;;;;;;;4.63;3.30;;;;;;;7.34;100.00;-24022.03;5033392;28;20635;-70
2024/01/19 06:56:06;;;;;;;4.70;2.90;;;;;;;7.36;100.00;-24022.44;5032978;28;20175;-70
2024/01/19 06:58:32;;;;;;;4.00;3.70;;;;;;;7.26;100.00;-24019.63;5033362;28;20202;-69
2024/01/19 07:00:57;;;;;;;3.73;3.37;;;;;;;7.58;100.00;-24028.69;5032087;28;20651;-72
2024/01/19 07:03:23;;;;;;;6.20;4.13;;;;;;;7.52;100.00;-24026.97;5033486;28;20233;-71
2024/01/19 07:05:48;;;;;;;3.43;3.13;;;;;;;7.60;100.00;-24029.09;5033145;28;20181;-71
2024/01/19 07:08:13;;;;;;;3.33;3.03;;;;;;;7.46;100.00;-24025.44;5033013;28;20181;-69
2024/01/19 07:10:39;;;;;;;3.07;2.57;;;;;;;7.60;100.00;-24029.25;5032954;28;20213;-69
2024/01/19 07:13:04;;;;;;;3.60;2.90;;;;;;;7.93;100.00;-24038.59;5032479;28;20173;-72
2024/01/19 07:15:30;;;;;;;3.97;3.17;;;;;;;8.05;100.00;-24041.72;5037742;28;20168;-66
2024/01/19 07:17:55;;;;;;;2.97;2.43;;;;;;;7.81;100.00;-24035.22;5033664;28;20179;-72
2024/01/19 07:20:21;;;;;;;2.70;2.50;;;;;;;7.84;100.00;-24036.06;5029707;28;20188;-70
2024/01/19 07:22:46;;;;;;;3.30;3.00;;;;;;;7.88;100.00;-24037.03;5030963;28;20228;-69
2024/01/19 07:25:11;;;;;;;5.88;3.25;;;;;;;8.17;100.00;-24045.13;5030754;28;20192;-73
2024/01/19 07:27:37;;;;;;;3.25;2.55;;;;;;;8.02;100.00;-24041.00;5031013;28;20258;-74
2024/01/19 07:30:03;;;;;;;2.55;2.35;;;;;;;8.36;100.00;-24050.66;5031130;28;20514;-70
2024/01/19 07:32:28;;;;;;;2.53;2.33;;;;;;;8.27;100.00;-24048.09;5032991;28;20544;-70
2024/01/19 07:34:53;;;;;;;2.88;2.25;;;;;;;8.55;100.00;-24055.88;5031465;28;20266;-70
2024/01/19 07:37:19;;;;;;;2.13;1.92;;;;;;;8.95;100.00;-24066.91;5032977;28;20175;-71
2024/01/19 07:39:44;;;;;;;3.67;2.58;;;;;;;8.78;100.00;-24062.38;5032315;28;20723;-71
2024/01/19 07:42:10;;;;;;;2.55;2.35;;;;;;;9.17;100.00;-24073.13;5032929;28;20254;-71
2024/01/19 07:44:35;;;;;;;1.50;1.40;;;;;;;9.37;100.00;-24078.66;5032366;28;20556;-75
2024/01/19 07:47:00;;;;;;;2.40;1.70;;;;;;;9.22;100.00;-24074.56;5032546;28;20256;-73
2024/01/19 07:49:26;;;;;;;1.80;1.70;;;;;;;9.39;100.00;-24079.22;5032537;28;20163;-70
2024/01/19 07:51:51;;;;;;;2.63;1.63;;;;;;;9.75;100.00;-24089.53;5032262;28;20555;-67
2024/01/19 07:54:17;;;;;;;1.50;1.40;;;;;;;9.86;100.00;-24092.34;5032262;28;20178;-70
2024/01/19 07:56:43;;;;;;;2.03;1.92;;;;;;;10.03;100.00;-24097.16;5032483;28;20654;-71
2024/01/19 07:59:08;;;;;;;1.50;1.40;;;;;;;10.46;100.00;-24109.31;5032098;28;20290;-71
2024/01/19 08:01:34;;;;;;;1.90;1.80;;;;;;;10.55;100.00;-24111.84;5030838;28;20237;-70
2024/01/19 08:04:00;;;;;;;2.00;1.90;;;;;;;10.59;100.00;-24112.81;5032155;28;20168;-73
2024/01/19 08:06:25;;;;;;;1.25;1.23;;;;;;;10.32;100.00;-24105.34;5032365;28;20215;-73
2024/01/19 08:08:50;;;;;;;1.48;1.38;;;;;;;10.57;100.00;-24112.41;5031875;28;20222;-70
2024/01/19 08:11:16;;;;;;;1.65;1.55;;;;;;;10.65;100.00;-24114.53;5030934;28;20194;-74
2024/01/19 08:13:41;;;;;;;1.63;1.52;;;;;;;10.70;100.00;-24115.94;5032009;28;20183;-71
2024/01/19 08:16:07;;;;;;;2.25;1.52;;;;;;;10.52;100.00;-24111.00;5032668;28;20634;-72
2024/01/19 08:18:34;;;;;;;3.08;2.80;;;;;;;10.86;100.00;-24120.44;5031784;28;20631;-71
2024/01/19 08:21:01;;;;;;;1.75;1.65;;;;;;;10.94;100.00;-24122.56;5041213;28;20175;-70
2024/01/19 08:23:27;;;;;;;1.35;1.25;;;;;;;11.05;100.00;-24125.66;5030496;28;20665;-72
2024/01/19 08:25:52;;;;;;;2.20;2.00;;;;;;;10.96;100.00;-24123.25;5031845;28;20219;-74
2024/01/19 08:28:18;;;;;;;1.55;1.45;;;;;;;11.00;100.00;-24124.41;5030402;28;20249;-72
2024/01/19 08:30:43;;;;;;;1.55;1.45;;;;;;;11.32;100.00;-24133.13;5031490;28;20167;-70
2024/01/19 08:33:09;;;;;;;1.25;1.23;;;;;;;11.25;100.00;-24131.31;5031380;28;20618;-69
2024/01/19 08:35:34;;;;;;;2.10;1.88;;;;;;;11.50;100.00;-24138.34;5030068;28;20171;-69
2024/01/19 08:37:59;;;;;;;2.70;2.05;;;;;;;11.81;100.00;-24146.94;5030973;28;20245;-71
2024/01/19 08:40:25;;;;;;;2.72;2.53;;;;;;;11.65;100.00;-24142.44;5031735;28;20163;-72
2024/01/19 08:42:50;;;;;;;1.50;1.40;;;;;;;11.95;100.00;-24148.88;5031797;28;20286;-69
2024/01/19 08:45:16;;;;;;;1.95;1.83;;;;;;;11.96;100.00;-24149.16;5031538;28;20239;-68
2024/01/19 08:47:41;;;;;;;2.35;2.15;;;;;;;12.29;100.00;-23519.25;5031157;28;20614;-69
2024/01/19 08:50:07;;;;;;;1.70;1.60;;;;;;;12.45;100.00;-23203.94;5031386;28;20201;-71
2024/01/19 08:52:32;;;;;;;1.45;1.35;;;;;;;12.75;100.00;-22891.94;5031279;28;20717;-74
2024/01/19 08:54:58;;;;;;;1.48;1.33;;;;;;;12.93;100.00;-21616.44;5031193;28;20643;-72
2024/01/19 08:57:24;;;;;;;2.03;1.92;;;;;;;13.32;100.00;-21305.38;5029710;28;20539;-71
2024/01/19 08:59:50;;;;;;;1.63;1.52;;;;;;;13.50;100.00;-18745.34;5039998;28;20221;-71
2024/01/19 09:02:15;;;;;;;2.08;1.88;;;;;;;13.28;100.00;-18420.75;5031132;28;20179;-72
2024/01/19 09:04:41;;;;;;;1.55;1.45;;;;;;;13.32;100.00;-19062.53;5031247;28;20175;-67
2024/01/19 09:07:06;;;;;;;1.65;1.55;;;;;;;13.42;100.00;-20346.47;5030965;28;20278;-68
2024/01/19 09:09:31;;;;;;;1.23;1.13;;;;;;;13.48;100.00;-20027.28;5031089;28;20623;-69
2024/01/19 09:11:57;;;;;;;2.58;2.25;;;;;;;13.35;100.00;-20665.34;5030794;28;20175;-68
2024/01/19 09:14:28;;;;;;;1.42;1.33;;;;;;;13.45;100.00;-18103.06;5031149;28;20189;-71
2024/01/19 09:16:53;;;;;;;2.30;1.13;;;;;;;13.70;100.00;-17465.91;5030878;28;20179;-73
2024/01/19 09:19:19;;;;;;;1.55;1.27;;;;;;;14.01;100.00;-18113.13;5031063;28;20209;-72
2024/01/19 09:21:44;;;;;;;1.83;1.40;;;;;;;14.23;100.00;-14583.06;5030427;28;20187;-71
2024/01/19 09:24:13;;;;;;;1.60;1.50;;;;;;;14.34;100.00;-15227.34;5033755;28;20207;-73
2024/01/19 09:26:39;;;;;;;1.30;1.20;;;;;;;14.58;100.00;-14908.97;5031817;28;20198;-71
2024/01/19 09:29:05;;;;;;;1.58;1.33;;;;;;;14.55;100.00;-14587.00;5031076;28;20203;-72
2024/01/19 09:31:30;;;;;;;2.13;1.92;;;;;;;14.87;100.00;-12659.63;5029444;28;20172;-71
2024/01/19 09:33:56;;;;;;;1.33;1.25;;;;;;;14.99;100.00;-7504.09;5030663;28;20242;-72
2024/01/19 09:36:21;;;;;;;1.23;1.13;;;;;;;14.58;100.00;-10081.44;5030842;28;20198;-69
2024/01/19 09:38:46;;;;;;;3.50;1.35;;;;;;;14.75;100.00;-9115.63;5029354;28;20207;-71
2024/01/19 09:41:49;;;;;;;2.13;1.40;;;;;;;15.15;100.00;-9439.38;5031089;28;20175;-71
2024/01/19 09:44:18;;;;;;;1.27;1.17;;;;;;;15.24;100.00;-7826.94;5030999;28;20191;-69
2024/01/19 09:46:52;;;;;;;2.25;1.50;;;;;;;15.42;100.00;-7504.41;5030291;28;20176;-70
2024/01/19 09:49:40;;;;;;;1.52;1.20;;;;;;;15.43;100.00;-7504.41;5030798;28;20259;-71
2024/01/19 09:52:08;;;;;;;1.17;1.15;;;;;;;15.39;100.00;-6535.97;5030506;28;20561;-72
2024/01/19 09:54:34;;;;;;;1.30;1.20;;;;;;;15.09;100.00;-6858.91;5030728;28;20195;-70
2024/01/19 09:57:01;;;;;;;1.38;1.27;;;;;;;15.33;100.00;-6213.19;5030652;28;20229;-70
2024/01/19 09:59:30;;;;;;;1.23;1.13;;;;;;;14.97;100.00;-3954.28;5030299;28;20203;-72
2024/01/19 10:01:57;;;;;;;2.83;1.55;;;;;;;15.02;100.00;-4922.63;5030679;28;20659;-68
2024/01/19 10:04:23;;;;;;;1.23;1.13;;;;;;;15.12;100.00;-5567.94;5030314;28;20183;-68
2024/01/19 10:06:53;;;;;;;1.52;1.30;;;;;;;15.01;100.00;-6213.63;5030322;28;20614;-72
2024/01/19 10:09:20;;;;;;;1.10;1.10;;;;;;;15.38;100.00;-3952.22;5030736;28;20172;-70
2024/01/19 10:11:53;;;;;;;1.15;1.00;;;;;;;15.61;100.00;-3304.53;5030484;28;20191;-68
2024/01/19 10:14:20;;;;;;;1.20;1.15;;;;;;;15.62;100.00;-1687.63;5029439;28;20175;-70
2024/01/19 10:16:48;;;;;;;0.98;0.98;;;;;;;15.78;100.00;1226.81;5029826;28;20654;-74
2024/01/19 10:19:14;;;;;;;3.17;2.17;;;;;;;15.85;100.00;903.94;5029774;28;20211;-70
2024/01/19 10:21:40;;;;;;;1.50;1.40;;;;;;;15.72;100.00;2197.50;5030111;28;20592;-70
2024/01/19 10:24:18;;;;;;;1.73;1.15;;;;;;;15.99;100.00;4470.50;5029555;28;20175;-72
2024/01/19 10:26:47;;;;;;;2.78;1.73;;;;;;;16.08;100.00;2851.19;5031575;28;20164;-70
2024/01/19 10:29:16;;;;;;;1.00;1.00;;;;;;;15.98;100.00;1229.56;5032189;28;20187;-72
2024/01/19 10:31:45;;;;;;;1.15;1.10;;;;;;;16.07;100.00;1878.78;5030088;28;20179;-70
2024/01/19 10:34:18;;;;;;;1.02;1.02;;;;;;;16.17;100.00;5122.75;5030582;28;20341;-73
2024/01/19 10:36:44;;;;;;;1.00;1.00;;;;;;;16.15;100.00;8367.94;5032003;28;20182;-72
2024/01/19 10:39:19;;;;;;;1.15;1.15;;;;;;;16.35;100.00;6749.28;5033604;28;20231;-72
2024/01/19 10:41:45;;;;;;;1.42;1.33;;;;;;;16.13;100.00;9991.25;5033529;28;20635;-72
2024/01/19 10:44:13;;;;;;;1.02;1.00;;;;;;;16.22;100.00;10643.81;5033479;28;20217;-71
2024/01/19 10:46:39;;;;;;;0.82;0.82;;;;;;;16.11;100.00;10965.38;5033749;28;20179;-72
2024/01/19 10:49:06;;;;;;;1.00;0.85;;;;;;;16.27;100.00;11295.19;5033397;28;20228;-72
2024/01/19 10:51:37;;;;;;;1.48;1.20;;;;;;;16.51;100.00;12603.47;5033227;28;20318;-69
2024/01/19 10:54:03;;;;;;;1.00;1.00;;;;;;;16.34;100.00;14224.53;5033583;28;20199;-72
2024/01/19 10:56:29;;;;;;;1.23;0.90;;;;;;;16.30;100.00;13247.34;5033336;28;20590;-69
2024/01/19 10:58:54;;;;;;;1.75;0.93;;;;;;;16.28;100.00;13246.66;5031957;28;20191;-71
2024/01/19 11:01:20;;;;;;;1.45;1.35;;;;;;;16.62;100.00;14234.19;5033154;28;20160;-69
2024/01/19 11:03:45;;;;;;;1.52;1.30;;;;;;;16.40;100.00;14552.09;5033417;28;20199;-71
2024/01/19 11:06:12;;;;;;;1.70;1.60;;;;;;;16.39;100.00;13900.72;5033868;28;20487;-72
2024/01/19 11:08:38;;;;;;;1.30;1.20;;;;;;;16.55;100.00;13580.78;5033216;28;20184;-72
2024/01/19 11:11:05;;;;;;;2.08;1.52;;;;;;;16.22;100.00;13244.50;5032999;28;20184;-71
2024/01/19 11:13:42;;;;;;;1.00;0.98;;;;;;;16.50;100.00;11952.41;5041882;28;20215;-70
2024/01/19 11:16:13;;;;;;;2.28;1.15;;;;;;;16.74;100.00;13587.22;5032847;28;20179;-71
2024/01/19 11:18:39;;;;;;;1.92;1.52;;;;;;;16.48;100.00;12602.34;5032860;28;20266;-70